sensor_id;sensor_type;location;lat;lon;timestamp;pressure;altitude;pressure_sealevel;temperature;humidity
48964;BME280;34776;48.180;16.420;2023-03-15T00:02:01;98871.28;;;9.05;48.12
48964;BME280;34776;48.180;16.420;2023-03-15T00:04:26;98869.56;;;9.04;48.33
48964;BME280;34776;48.180;16.420;2023-03-15T00:06:52;98881.00;;;9.05;48.41
48964;BME280;34776;48.180;16.420;2023-03-15T00:09:18;98883.94;;;9.00;48.60
48964;BME280;34776;48.180;16.420;2023-03-15T00:11:43;98888.41;;;9.00;48.62
48964;BME280;34776;48.180;16.420;2023-03-15T00:14:09;98883.78;;;9.03;48.58
48964;BME280;34776;48.180;16.420;2023-03-15T00:16:35;98879.25;;;9.05;48.57
48964;BME280;34776;48.180;16.420;2023-03-15T00:19:01;98876.59;;;9.05;48.58
48964;BME280;34776;48.180;16.420;2023-03-15T00:21:26;98880.09;;;9.06;48.58
48964;BME280;34776;48.180;16.420;2023-03-15T00:23:54;98881.69;;;9.08;48.60
48964;BME280;34776;48.180;16.420;2023-03-15T00:26:19;98892.13;;;9.11;48.36
48964;BME280;34776;48.180;16.420;2023-03-15T00:28:45;98888.50;;;9.12;48.25
48964;BME280;34776;48.180;16.420;2023-03-15T00:31:17;98898.28;;;9.12;48.01
48964;BME280;34776;48.180;16.420;2023-03-15T00:33:43;98893.66;;;9.16;48.31
48964;BME280;34776;48.180;16.420;2023-03-15T00:36:09;98898.75;;;9.19;48.17
48964;BME280;34776;48.180;16.420;2023-03-15T00:38:37;98890.88;;;9.17;48.00
48964;BME280;34776;48.180;16.420;2023-03-15T00:41:13;98894.50;;;9.16;47.93
48964;BME280;34776;48.180;16.420;2023-03-15T00:43:39;98896.00;;;9.20;47.81
48964;BME280;34776;48.180;16.420;2023-03-15T00:46:05;98897.22;;;9.14;47.70
48964;BME280;34776;48.180;16.420;2023-03-15T00:48:31;98907.66;;;9.18;47.40
48964;BME280;34776;48.180;16.420;2023-03-15T00:53:31;98897.97;;;9.17;47.63
48964;BME280;34776;48.180;16.420;2023-03-15T00:55:56;98896.19;;;9.17;47.62
48964;BME280;34776;48.180;16.420;2023-03-15T00:58:21;98904.03;;;9.19;47.41
48964;BME280;34776;48.180;16.420;2023-03-15T01:00:47;98914.66;;;9.19;47.38
48964;BME280;34776;48.180;16.420;2023-03-15T01:03:12;98918.91;;;9.21;47.30
48964;BME280;34776;48.180;16.420;2023-03-15T01:05:39;98921.63;;;9.20;47.28
48964;BME280;34776;48.180;16.420;2023-03-15T01:08:04;98921.63;;;9.20;47.36
48964;BME280;34776;48.180;16.420;2023-03-15T01:10:30;98930.56;;;9.19;47.26
48964;BME280;34776;48.180;16.420;2023-03-15T01:12:55;98932.25;;;9.20;47.25
48964;BME280;34776;48.180;16.420;2023-03-15T01:15:20;98933.00;;;9.22;47.21
48964;BME280;34776;48.180;16.420;2023-03-15T01:17:46;98938.41;;;9.20;47.30
48964;BME280;34776;48.180;16.420;2023-03-15T01:20:12;98944.75;;;9.18;47.44
48964;BME280;34776;48.180;16.420;2023-03-15T01:22:38;98954.78;;;9.12;47.43
48964;BME280;34776;48.180;16.420;2023-03-15T01:25:04;98956.75;;;9.09;48.17
48964;BME280;34776;48.180;16.420;2023-03-15T01:27:30;98958.91;;;9.02;50.22
48964;BME280;34776;48.180;16.420;2023-03-15T01:29:55;98978.50;;;8.84;52.04
48964;BME280;34776;48.180;16.420;2023-03-15T01:32:20;98977.94;;;8.63;53.23
48964;BME280;34776;48.180;16.420;2023-03-15T01:34:46;98989.34;;;8.49;54.08
48964;BME280;34776;48.180;16.420;2023-03-15T01:37:11;98998.06;;;8.33;54.63
48964;BME280;34776;48.180;16.420;2023-03-15T01:39:39;99002.59;;;8.16;55.14
48964;BME280;34776;48.180;16.420;2023-03-15T01:42:04;99008.69;;;7.84;55.81
48964;BME280;34776;48.180;16.420;2023-03-15T01:44:56;99007.69;;;7.69;57.35
48964;BME280;34776;48.180;16.420;2023-03-15T01:47:22;99010.50;;;7.66;56.07
48964;BME280;34776;48.180;16.420;2023-03-15T01:49:58;99009.81;;;7.63;56.10
48964;BME280;34776;48.180;16.420;2023-03-15T01:52:33;99017.28;;;7.55;56.72
48964;BME280;34776;48.180;16.420;2023-03-15T01:55:09;99018.75;;;7.43;56.79
48964;BME280;34776;48.180;16.420;2023-03-15T02:00:10;99029.41;;;7.24;56.91
48964;BME280;34776;48.180;16.420;2023-03-15T02:02:47;99038.59;;;7.17;57.87
48964;BME280;34776;48.180;16.420;2023-03-15T02:05:19;99029.88;;;7.15;57.03
48964;BME280;34776;48.180;16.420;2023-03-15T02:07:47;99028.41;;;7.09;56.96
48964;BME280;34776;48.180;16.420;2023-03-15T02:10:48;99034.63;;;7.08;57.82
48964;BME280;34776;48.180;16.420;2023-03-15T02:13:17;99033.13;;;7.02;57.14
48964;BME280;34776;48.180;16.420;2023-03-15T02:15:43;99053.47;;;7.00;57.14
48964;BME280;34776;48.180;16.420;2023-03-15T02:18:15;99045.06;;;6.92;57.35
48964;BME280;34776;48.180;16.420;2023-03-15T02:20:49;99052.22;;;6.90;57.53
48964;BME280;34776;48.180;16.420;2023-03-15T02:23:17;99046.81;;;6.93;57.30
48964;BME280;34776;48.180;16.420;2023-03-15T02:28:31;99040.38;;;6.80;57.77
48964;BME280;34776;48.180;16.420;2023-03-15T02:30:56;99037.25;;;6.71;57.99
48964;BME280;34776;48.180;16.420;2023-03-15T02:33:32;99039.56;;;6.60;58.44
48964;BME280;34776;48.180;16.420;2023-03-15T02:36:20;99049.34;;;6.58;59.04
48964;BME280;34776;48.180;16.420;2023-03-15T02:38:47;99051.03;;;6.59;58.28
48964;BME280;34776;48.180;16.420;2023-03-15T02:41:17;99046.13;;;6.52;58.48
48964;BME280;34776;48.180;16.420;2023-03-15T02:43:44;99041.72;;;6.52;58.48
48964;BME280;34776;48.180;16.420;2023-03-15T02:46:12;99040.06;;;6.49;58.66
48964;BME280;34776;48.180;16.420;2023-03-15T02:48:39;99039.28;;;6.47;58.64
48964;BME280;34776;48.180;16.420;2023-03-15T02:51:05;99032.28;;;6.46;58.67
48964;BME280;34776;48.180;16.420;2023-03-15T02:53:31;99040.19;;;6.46;58.93
48964;BME280;34776;48.180;16.420;2023-03-15T02:55:57;99042.16;;;6.43;58.70
48964;BME280;34776;48.180;16.420;2023-03-15T02:58:23;99046.63;;;6.41;58.74
48964;BME280;34776;48.180;16.420;2023-03-15T03:00:49;99045.84;;;6.39;58.55
48964;BME280;34776;48.180;16.420;2023-03-15T03:03:16;99051.25;;;6.36;58.62
48964;BME280;34776;48.180;16.420;2023-03-15T03:05:41;99056.69;;;6.33;58.59
48964;BME280;34776;48.180;16.420;2023-03-15T03:08:07;99055.75;;;6.34;58.61
48964;BME280;34776;48.180;16.420;2023-03-15T03:10:32;99058.38;;;6.34;58.54
48964;BME280;34776;48.180;16.420;2023-03-15T03:12:57;99058.66;;;6.27;58.58
48964;BME280;34776;48.180;16.420;2023-03-15T03:15:23;99056.81;;;6.29;58.38
48964;BME280;34776;48.180;16.420;2023-03-15T03:17:48;99064.72;;;6.29;58.38
48964;BME280;34776;48.180;16.420;2023-03-15T03:20:14;99076.34;;;6.25;58.45
48964;BME280;34776;48.180;16.420;2023-03-15T03:22:40;99086.06;;;6.25;58.16
48964;BME280;34776;48.180;16.420;2023-03-15T03:25:09;99094.03;;;6.23;58.10
48964;BME280;34776;48.180;16.420;2023-03-15T03:27:35;99094.03;;;6.23;57.93
48964;BME280;34776;48.180;16.420;2023-03-15T03:30:05;99090.88;;;6.15;57.91
48964;BME280;34776;48.180;16.420;2023-03-15T03:32:32;99087.44;;;6.13;57.76
48964;BME280;34776;48.180;16.420;2023-03-15T03:34:57;99085.59;;;6.15;57.63
48964;BME280;34776;48.180;16.420;2023-03-15T03:37:23;99093.34;;;6.20;57.53
48964;BME280;34776;48.180;16.420;2023-03-15T03:39:48;99089.19;;;6.14;57.19
48964;BME280;34776;48.180;16.420;2023-03-15T03:42:13;99092.88;;;6.10;57.11
48964;BME280;34776;48.180;16.420;2023-03-15T03:44:39;99092.88;;;6.10;56.81
48964;BME280;34776;48.180;16.420;2023-03-15T03:47:05;99099.09;;;6.09;56.63
48964;BME280;34776;48.180;16.420;2023-03-15T03:49:31;99094.88;;;6.05;56.41
48964;BME280;34776;48.180;16.420;2023-03-15T03:51:56;99112.41;;;6.06;56.61
48964;BME280;34776;48.180;16.420;2023-03-15T03:54:21;99111.63;;;6.04;56.24
48964;BME280;34776;48.180;16.420;2023-03-15T03:56:47;99112.56;;;6.03;56.28
48964;BME280;34776;48.180;16.420;2023-03-15T03:59:13;99108.97;;;6.04;56.37
48964;BME280;34776;48.180;16.420;2023-03-15T04:01:39;99112.81;;;5.97;56.08
48964;BME280;34776;48.180;16.420;2023-03-15T04:04:06;99107.78;;;5.90;56.16
48964;BME280;34776;48.180;16.420;2023-03-15T04:06:31;99110.31;;;5.92;56.11
48964;BME280;34776;48.180;16.420;2023-03-15T04:08:57;99108.47;;;5.94;55.99
48964;BME280;34776;48.180;16.420;2023-03-15T04:11:22;99121.66;;;5.94;55.51
48964;BME280;34776;48.180;16.420;2023-03-15T04:13:51;99117.47;;;5.90;55.42
48964;BME280;34776;48.180;16.420;2023-03-15T04:16:18;99123.84;;;5.84;55.47
48964;BME280;34776;48.180;16.420;2023-03-15T04:18:43;99128.13;;;5.87;55.46
48964;BME280;34776;48.180;16.420;2023-03-15T04:21:08;99136.78;;;5.90;55.01
48964;BME280;34776;48.180;16.420;2023-03-15T04:23:35;99136.97;;;5.86;54.95
48964;BME280;34776;48.180;16.420;2023-03-15T04:26:01;99137.94;;;5.83;54.73
48964;BME280;34776;48.180;16.420;2023-03-15T04:28:27;99150.47;;;5.78;54.60
48964;BME280;34776;48.180;16.420;2023-03-15T04:30:54;99155.06;;;5.73;54.49
48964;BME280;34776;48.180;16.420;2023-03-15T04:33:26;99162.03;;;5.76;54.39
48964;BME280;34776;48.180;16.420;2023-03-15T04:35:52;99167.28;;;5.76;53.94
48964;BME280;34776;48.180;16.420;2023-03-15T04:38:18;99164.72;;;5.74;53.61
48964;BME280;34776;48.180;16.420;2023-03-15T04:40:43;99169.19;;;5.72;53.85
48964;BME280;34776;48.180;16.420;2023-03-15T04:43:09;99173.41;;;5.76;53.38
48964;BME280;34776;48.180;16.420;2023-03-15T04:45:34;99174.25;;;5.77;53.17
48964;BME280;34776;48.180;16.420;2023-03-15T04:48:00;99163.06;;;5.72;52.91
48964;BME280;34776;48.180;16.420;2023-03-15T04:50:27;99170.38;;;5.65;52.61
48964;BME280;34776;48.180;16.420;2023-03-15T04:52:52;99175.91;;;5.59;52.52
48964;BME280;34776;48.180;16.420;2023-03-15T04:55:18;99183.88;;;5.57;52.88
48964;BME280;34776;48.180;16.420;2023-03-15T04:57:43;99187.41;;;5.56;52.29
48964;BME280;34776;48.180;16.420;2023-03-15T05:00:09;99194.47;;;5.56;52.32
48964;BME280;34776;48.180;16.420;2023-03-15T05:02:38;99195.31;;;5.56;52.21
48964;BME280;34776;48.180;16.420;2023-03-15T05:05:06;99197.09;;;5.56;51.96
48964;BME280;34776;48.180;16.420;2023-03-15T05:07:33;99208.69;;;5.52;52.13
48964;BME280;34776;48.180;16.420;2023-03-15T05:09:58;99200.97;;;5.47;51.86
48964;BME280;34776;48.180;16.420;2023-03-15T05:12:24;99205.38;;;5.46;51.98
48964;BME280;34776;48.180;16.420;2023-03-15T05:14:49;99207.41;;;5.40;51.73
48964;BME280;34776;48.180;16.420;2023-03-15T05:17:14;99208.25;;;5.40;51.83
48964;BME280;34776;48.180;16.420;2023-03-15T05:19:40;99210.09;;;5.38;51.93
48964;BME280;34776;48.180;16.420;2023-03-15T05:22:06;99206.66;;;5.36;51.74
48964;BME280;34776;48.180;16.420;2023-03-15T05:24:32;99211.19;;;5.33;51.81
48964;BME280;34776;48.180;16.420;2023-03-15T05:26:57;99206.78;;;5.33;51.59
48964;BME280;34776;48.180;16.420;2023-03-15T05:29:22;99229.69;;;5.31;51.60
48964;BME280;34776;48.180;16.420;2023-03-15T05:31:48;99210.34;;;5.32;51.30
48964;BME280;34776;48.180;16.420;2023-03-15T05:34:14;99223.50;;;5.32;51.49
48964;BME280;34776;48.180;16.420;2023-03-15T05:36:40;99227.75;;;5.36;51.59
48964;BME280;34776;48.180;16.420;2023-03-15T05:39:06;99230.25;;;5.39;51.37
48964;BME280;34776;48.180;16.420;2023-03-15T05:41:33;99224.97;;;5.39;51.62
48964;BME280;34776;48.180;16.420;2023-03-15T05:43:58;99223.84;;;5.46;51.30
48964;BME280;34776;48.180;16.420;2023-03-15T05:46:23;99232.34;;;5.53;51.08
48964;BME280;34776;48.180;16.420;2023-03-15T05:48:49;99236.88;;;5.49;50.75
48964;BME280;34776;48.180;16.420;2023-03-15T05:51:15;99241.34;;;5.47;51.07
48964;BME280;34776;48.180;16.420;2023-03-15T05:53:41;99246.59;;;5.47;51.01
48964;BME280;34776;48.180;16.420;2023-03-15T05:56:07;99260.59;;;5.49;50.89
48964;BME280;34776;48.180;16.420;2023-03-15T05:58:32;99265.75;;;5.53;50.93
48964;BME280;34776;48.180;16.420;2023-03-15T06:00:58;99265.63;;;5.56;50.65
48964;BME280;34776;48.180;16.420;2023-03-15T06:03:25;99276.16;;;5.56;50.68
48964;BME280;34776;48.180;16.420;2023-03-15T06:05:51;99277.00;;;5.56;50.83
48964;BME280;34776;48.180;16.420;2023-03-15T06:08:16;99280.44;;;5.58;50.52
48964;BME280;34776;48.180;16.420;2023-03-15T06:10:42;99288.19;;;5.63;50.47
48964;BME280;34776;48.180;16.420;2023-03-15T06:13:07;99293.47;;;5.63;50.26
48964;BME280;34776;48.180;16.420;2023-03-15T06:15:32;99297.94;;;5.61;49.94
48964;BME280;34776;48.180;16.420;2023-03-15T06:17:58;99296.16;;;5.61;50.25
48964;BME280;34776;48.180;16.420;2023-03-15T06:20:23;99295.81;;;5.69;49.79
48964;BME280;34776;48.180;16.420;2023-03-15T06:22:48;99300.19;;;5.70;49.60
48964;BME280;34776;48.180;16.420;2023-03-15T06:25:14;99309.75;;;5.73;49.43
48964;BME280;34776;48.180;16.420;2023-03-15T06:27:39;99317.59;;;5.74;49.16
48964;BME280;34776;48.180;16.420;2023-03-15T06:30:05;99326.41;;;5.73;49.14
48964;BME280;34776;48.180;16.420;2023-03-15T06:32:31;99320.91;;;5.79;49.01
48964;BME280;34776;48.180;16.420;2023-03-15T06:34:56;99323.25;;;5.87;48.76
48964;BME280;34776;48.180;16.420;2023-03-15T06:37:22;99336.38;;;5.88;48.52
48964;BME280;34776;48.180;16.420;2023-03-15T06:39:47;99335.25;;;5.94;48.47
48964;BME280;34776;48.180;16.420;2023-03-15T06:42:13;99338.19;;;6.10;48.41
48964;BME280;34776;48.180;16.420;2023-03-15T06:44:39;99350.06;;;6.20;47.94
48964;BME280;34776;48.180;16.420;2023-03-15T06:47:06;99354.31;;;6.24;47.85
48964;BME280;34776;48.180;16.420;2023-03-15T06:49:32;99353.81;;;6.37;47.60
48964;BME280;34776;48.180;16.420;2023-03-15T06:51:57;99356.72;;;6.51;47.15
48964;BME280;34776;48.180;16.420;2023-03-15T06:54:23;99356.44;;;6.57;47.26
48964;BME280;34776;48.180;16.420;2023-03-15T06:56:48;99370.50;;;6.78;47.05
48964;BME280;34776;48.180;16.420;2023-03-15T06:59:13;99364.91;;;6.65;46.45
48964;BME280;34776;48.180;16.420;2023-03-15T07:01:39;99375.59;;;6.62;46.60
48964;BME280;34776;48.180;16.420;2023-03-15T07:04:04;99374.56;;;6.66;46.52
48964;BME280;34776;48.180;16.420;2023-03-15T07:06:30;99387.25;;;6.79;46.40
48964;BME280;34776;48.180;16.420;2023-03-15T07:08:56;99386.97;;;6.85;46.05
48964;BME280;34776;48.180;16.420;2023-03-15T07:11:21;99398.97;;;6.92;45.65
48964;BME280;34776;48.180;16.420;2023-03-15T07:13:46;99405.59;;;7.02;45.20
48964;BME280;34776;48.180;16.420;2023-03-15T07:16:12;99421.44;;;7.02;45.30
48964;BME280;34776;48.180;16.420;2023-03-15T07:18:37;99421.44;;;7.02;45.15
48964;BME280;34776;48.180;16.420;2023-03-15T07:21:03;99435.84;;;6.95;44.76
48964;BME280;34776;48.180;16.420;2023-03-15T07:23:30;99436.22;;;6.86;44.57
48964;BME280;34776;48.180;16.420;2023-03-15T07:25:56;99439.84;;;6.83;44.74
48964;BME280;34776;48.180;16.420;2023-03-15T07:28:23;99444.13;;;6.86;44.69
48964;BME280;34776;48.180;16.420;2023-03-15T07:30:52;99447.47;;;6.91;44.37
48964;BME280;34776;48.180;16.420;2023-03-15T07:33:18;99445.41;;;6.98;44.21
48964;BME280;34776;48.180;16.420;2023-03-15T07:35:46;99440.56;;;7.07;44.43
48964;BME280;34776;48.180;16.420;2023-03-15T07:38:11;99448.28;;;7.32;43.99
48964;BME280;34776;48.180;16.420;2023-03-15T07:40:37;99462.88;;;7.62;43.79
48964;BME280;34776;48.180;16.420;2023-03-15T07:43:02;99463.50;;;7.87;43.42
48964;BME280;34776;48.180;16.420;2023-03-15T07:45:28;99465.66;;;8.17;42.70
48964;BME280;34776;48.180;16.420;2023-03-15T07:47:53;99456.75;;;8.18;42.12
48964;BME280;34776;48.180;16.420;2023-03-15T07:50:19;99455.75;;;8.21;42.08
48964;BME280;34776;48.180;16.420;2023-03-15T07:52:44;99465.34;;;8.61;41.99
48964;BME280;34776;48.180;16.420;2023-03-15T07:55:09;99462.94;;;9.09;41.00
48964;BME280;34776;48.180;16.420;2023-03-15T07:57:35;99464.34;;;9.33;40.85
48964;BME280;34776;48.180;16.420;2023-03-15T08:00:00;99450.97;;;9.52;39.70
48964;BME280;34776;48.180;16.420;2023-03-15T08:02:25;99465.41;;;9.47;39.70
48964;BME280;34776;48.180;16.420;2023-03-15T08:04:51;99460.50;;;9.57;39.35
48964;BME280;34776;48.180;16.420;2023-03-15T08:07:17;99460.91;;;10.14;39.12
48964;BME280;34776;48.180;16.420;2023-03-15T08:09:42;99457.03;;;10.99;38.15
48964;BME280;34776;48.180;16.420;2023-03-15T08:12:08;99467.06;;;12.12;36.73
48964;BME280;34776;48.180;16.420;2023-03-15T08:14:34;99461.06;;;12.08;36.14
48964;BME280;34776;48.180;16.420;2023-03-15T08:16:59;99459.44;;;13.14;35.12
48964;BME280;34776;48.180;16.420;2023-03-15T08:19:24;99464.13;;;13.89;33.57
48964;BME280;34776;48.180;16.420;2023-03-15T08:21:50;99472.94;;;14.28;32.30
48964;BME280;34776;48.180;16.420;2023-03-15T08:24:18;99463.56;;;14.84;31.89
48964;BME280;34776;48.180;16.420;2023-03-15T08:26:44;99477.63;;;15.45;31.13
48964;BME280;34776;48.180;16.420;2023-03-15T08:29:10;99484.78;;;16.25;31.04
48964;BME280;34776;48.180;16.420;2023-03-15T08:31:35;99477.66;;;16.80;29.72
48964;BME280;34776;48.180;16.420;2023-03-15T08:34:00;99477.03;;;17.09;29.06
48964;BME280;34776;48.180;16.420;2023-03-15T08:36:26;99485.31;;;17.17;28.57
48964;BME280;34776;48.180;16.420;2023-03-15T08:38:51;99488.31;;;17.03;27.99
48964;BME280;34776;48.180;16.420;2023-03-15T08:41:17;99497.88;;;16.73;28.63
48964;BME280;34776;48.180;16.420;2023-03-15T08:43:42;99497.84;;;16.30;29.09
48964;BME280;34776;48.180;16.420;2023-03-15T08:46:07;99498.44;;;15.88;29.21
48964;BME280;34776;48.180;16.420;2023-03-15T08:48:33;99504.06;;;15.96;29.04
48964;BME280;34776;48.180;16.420;2023-03-15T08:51:05;99501.41;;;15.50;28.45
48964;BME280;34776;48.180;16.420;2023-03-15T08:53:31;99496.78;;;15.16;29.16
48964;BME280;34776;48.180;16.420;2023-03-15T08:55:57;99522.19;;;15.11;29.28
48964;BME280;34776;48.180;16.420;2023-03-15T08:58:22;99519.94;;;15.29;28.97
48964;BME280;34776;48.180;16.420;2023-03-15T09:00:49;99521.38;;;15.21;28.74
48964;BME280;34776;48.180;16.420;2023-03-15T09:03:15;99522.81;;;15.50;28.73
48964;BME280;34776;48.180;16.420;2023-03-15T09:05:41;99526.16;;;15.65;28.28
48964;BME280;34776;48.180;16.420;2023-03-15T09:08:06;99516.91;;;15.69;28.80
48964;BME280;34776;48.180;16.420;2023-03-15T09:10:32;99514.13;;;16.83;27.79
48964;BME280;34776;48.180;16.420;2023-03-15T09:12:58;99526.28;;;17.31;26.68
48964;BME280;34776;48.180;16.420;2023-03-15T09:15:24;99540.84;;;16.62;27.21
48964;BME280;34776;48.180;16.420;2023-03-15T09:17:50;99525.72;;;15.82;27.60
48964;BME280;34776;48.180;16.420;2023-03-15T09:20:18;99544.25;;;15.26;27.77
48964;BME280;34776;48.180;16.420;2023-03-15T09:22:51;99539.72;;;15.15;27.25
48964;BME280;34776;48.180;16.420;2023-03-15T09:25:17;99540.09;;;15.21;27.60
48964;BME280;34776;48.180;16.420;2023-03-15T09:27:43;99542.94;;;15.07;27.93
48964;BME280;34776;48.180;16.420;2023-03-15T09:30:09;99554.34;;;14.98;28.62
48964;BME280;34776;48.180;16.420;2023-03-15T09:32:35;99559.56;;;15.23;28.13
48964;BME280;34776;48.180;16.420;2023-03-15T09:35:05;99565.16;;;14.72;28.23
48964;BME280;34776;48.180;16.420;2023-03-15T09:37:31;99565.16;;;14.72;29.03
48964;BME280;34776;48.180;16.420;2023-03-15T09:39:57;99559.84;;;14.21;28.61
48964;BME280;34776;48.180;16.420;2023-03-15T09:45:06;99574.16;;;13.14;28.61
48964;BME280;34776;48.180;16.420;2023-03-15T09:50:31;99571.84;;;11.96;29.93
48964;BME280;34776;48.180;16.420;2023-03-15T09:55:50;99583.47;;;11.35;30.53
48964;BME280;34776;48.180;16.420;2023-03-15T09:58:21;99573.72;;;11.20;29.90
48964;BME280;34776;48.180;16.420;2023-03-15T10:00:48;99592.72;;;10.82;30.35
48964;BME280;34776;48.180;16.420;2023-03-15T10:06:29;99579.03;;;10.56;30.41
48964;BME280;34776;48.180;16.420;2023-03-15T10:08:59;99568.06;;;10.62;31.23
48964;BME280;34776;48.180;16.420;2023-03-15T10:11:46;99575.13;;;10.95;30.80
48964;BME280;34776;48.180;16.420;2023-03-15T10:14:29;99574.78;;;11.01;29.95
48964;BME280;34776;48.180;16.420;2023-03-15T10:17:11;99577.84;;;10.93;30.09
48964;BME280;34776;48.180;16.420;2023-03-15T10:19:57;99576.31;;;10.89;30.33
48964;BME280;34776;48.180;16.420;2023-03-15T10:22:46;99570.22;;;11.03;29.82
48964;BME280;34776;48.180;16.420;2023-03-15T10:25:17;99582.22;;;11.10;29.96
48964;BME280;34776;48.180;16.420;2023-03-15T10:30:34;99563.31;;;12.06;29.17
48964;BME280;34776;48.180;16.420;2023-03-15T10:35:54;99579.78;;;12.41;29.19
48964;BME280;34776;48.180;16.420;2023-03-15T10:38:21;99575.16;;;12.57;28.55
48964;BME280;34776;48.180;16.420;2023-03-15T10:40:52;99569.00;;;12.28;28.80
48964;BME280;34776;48.180;16.420;2023-03-15T10:43:21;99572.44;;;11.71;29.65
48964;BME280;34776;48.180;16.420;2023-03-15T10:46:04;99567.09;;;11.57;29.73
48964;BME280;34776;48.180;16.420;2023-03-15T10:48:38;99568.19;;;11.38;30.20
48964;BME280;34776;48.180;16.420;2023-03-15T10:51:19;99563.34;;;11.45;30.19
48964;BME280;34776;48.180;16.420;2023-03-15T10:54:12;99565.53;;;11.83;29.44
48964;BME280;34776;48.180;16.420;2023-03-15T10:56:48;99564.41;;;11.87;29.48
48964;BME280;34776;48.180;16.420;2023-03-15T10:59:20;99562.38;;;11.76;29.75
48964;BME280;34776;48.180;16.420;2023-03-15T11:01:50;99555.81;;;11.82;29.99
48964;BME280;34776;48.180;16.420;2023-03-15T11:04:24;99563.25;;;11.77;28.60
48964;BME280;34776;48.180;16.420;2023-03-15T11:06:59;99553.63;;;11.74;28.98
48964;BME280;34776;48.180;16.420;2023-03-15T11:09:40;99558.66;;;11.65;28.05
48964;BME280;34776;48.180;16.420;2023-03-15T11:12:07;99562.94;;;11.37;29.29
48964;BME280;34776;48.180;16.420;2023-03-15T11:14:42;99547.75;;;11.39;28.71
48964;BME280;34776;48.180;16.420;2023-03-15T11:17:17;99551.72;;;11.32;29.00
48964;BME280;34776;48.180;16.420;2023-03-15T11:20:02;99552.88;;;11.42;29.08
48964;BME280;34776;48.180;16.420;2023-03-15T11:22:37;99556.28;;;11.74;29.55
48964;BME280;34776;48.180;16.420;2023-03-15T11:25:04;99560.94;;;12.01;29.03
48964;BME280;34776;48.180;16.420;2023-03-15T11:27:30;99568.06;;;12.15;28.69
48964;BME280;34776;48.180;16.420;2023-03-15T11:29:58;99552.56;;;11.93;28.54
48964;BME280;34776;48.180;16.420;2023-03-15T11:32:28;99563.47;;;12.03;28.70
48964;BME280;34776;48.180;16.420;2023-03-15T11:35:16;99560.06;;;12.01;27.74
48964;BME280;34776;48.180;16.420;2023-03-15T11:37:56;99561.19;;;11.96;28.55
48964;BME280;34776;48.180;16.420;2023-03-15T11:40:42;99566.63;;;12.24;28.51
48964;BME280;34776;48.180;16.420;2023-03-15T11:43:27;99567.84;;;12.47;28.04
48964;BME280;34776;48.180;16.420;2023-03-15T11:45:56;99570.53;;;12.32;28.72
48964;BME280;34776;48.180;16.420;2023-03-15T11:48:32;99562.16;;;11.95;28.25
48964;BME280;34776;48.180;16.420;2023-03-15T11:51:01;99574.66;;;11.79;29.04
48964;BME280;34776;48.180;16.420;2023-03-15T11:53:36;99560.34;;;11.51;29.00
48964;BME280;34776;48.180;16.420;2023-03-15T11:56:20;99573.34;;;11.56;28.72
48964;BME280;34776;48.180;16.420;2023-03-15T11:59:06;99555.06;;;11.66;28.74
48964;BME280;34776;48.180;16.420;2023-03-15T12:01:34;99558.81;;;11.92;28.96
48964;BME280;34776;48.180;16.420;2023-03-15T12:06:51;99577.66;;;12.17;28.96
48964;BME280;34776;48.180;16.420;2023-03-15T12:15:00;99573.44;;;11.85;27.90
48964;BME280;34776;48.180;16.420;2023-03-15T12:21:03;99571.84;;;11.96;26.85
48964;BME280;34776;48.180;16.420;2023-03-15T12:28:35;99559.59;;;11.94;26.62
48964;BME280;34776;48.180;16.420;2023-03-15T12:31:03;99563.69;;;12.00;27.55
48964;BME280;34776;48.180;16.420;2023-03-15T12:33:31;99561.31;;;11.65;27.81
48964;BME280;34776;48.180;16.420;2023-03-15T12:36:00;99560.19;;;11.69;27.96
48964;BME280;34776;48.180;16.420;2023-03-15T12:38:34;99554.19;;;12.10;27.60
48964;BME280;34776;48.180;16.420;2023-03-15T12:41:05;99560.06;;;12.29;27.55
48964;BME280;34776;48.180;16.420;2023-03-15T12:43:45;99551.78;;;12.34;27.54
48964;BME280;34776;48.180;16.420;2023-03-15T12:54:46;99542.34;;;12.57;27.52
48964;BME280;34776;48.180;16.420;2023-03-15T12:57:26;99554.28;;;13.06;27.68
48964;BME280;34776;48.180;16.420;2023-03-15T13:02:34;99548.41;;;13.28;27.23
48964;BME280;34776;48.180;16.420;2023-03-15T13:05:14;99533.53;;;13.51;25.16
48964;BME280;34776;48.180;16.420;2023-03-15T13:10:27;99538.31;;;13.46;25.38
48964;BME280;34776;48.180;16.420;2023-03-15T13:15:34;99544.66;;;13.57;26.23
48964;BME280;34776;48.180;16.420;2023-03-15T13:18:12;99548.06;;;13.59;25.55
48964;BME280;34776;48.180;16.420;2023-03-15T13:20:50;99542.72;;;13.59;25.93
48964;BME280;34776;48.180;16.420;2023-03-15T13:25:53;99545.97;;;14.16;25.99
48964;BME280;34776;48.180;16.420;2023-03-15T13:28:26;99549.81;;;13.99;25.58
48964;BME280;34776;48.180;16.420;2023-03-15T13:31:09;99518.03;;;13.43;24.52
48964;BME280;34776;48.180;16.420;2023-03-15T13:33:36;99544.28;;;13.09;26.02
48964;BME280;34776;48.180;16.420;2023-03-15T13:36:04;99551.97;;;12.87;25.83
48964;BME280;34776;48.180;16.420;2023-03-15T13:38:40;99549.97;;;12.49;25.91
48964;BME280;34776;48.180;16.420;2023-03-15T13:43:50;99539.97;;;12.38;26.33
48964;BME280;34776;48.180;16.420;2023-03-15T13:46:18;99545.97;;;12.42;26.31
48964;BME280;34776;48.180;16.420;2023-03-15T13:48:46;99547.13;;;12.52;26.04
48964;BME280;34776;48.180;16.420;2023-03-15T13:51:19;99540.88;;;12.66;26.18
48964;BME280;34776;48.180;16.420;2023-03-15T13:53:48;99549.47;;;12.71;26.17
48964;BME280;34776;48.180;16.420;2023-03-15T13:56:20;99547.56;;;12.58;25.60
48964;BME280;34776;48.180;16.420;2023-03-15T13:58:51;99548.47;;;12.16;25.79
48964;BME280;34776;48.180;16.420;2023-03-15T14:01:16;99557.09;;;12.05;26.13
48964;BME280;34776;48.180;16.420;2023-03-15T14:03:46;99557.22;;;12.04;26.22
48964;BME280;34776;48.180;16.420;2023-03-15T14:06:21;99544.66;;;11.91;25.91